Time;durP1;ratioP1;P1;durP2;ratioP2;P2;SDS_P1;SDS_P2;PMS_P1;PMS_P2;Temp;Humidity;BMP_temperature;BMP_pressure;BME280_temperature;BME280_humidity;BME280_pressure;Samples;Min_cycle;Max_cycle;Signal;HPM_P1;HPM_P2
2022/05/23 00:01:47;;;;;;;5.78;3.25;;;;;;;10.35;64.43;96872.27;1543971;92;25339;-74
2022/05/23 00:04:14;;;;;;;7.90;3.83;;;;;;;10.35;64.45;96884.41;1544149;92;25845;-75
2022/05/23 00:06:42;;;;;;;6.70;3.70;;;;;;;10.33;64.59;96879.76;1543975;92;25897;-75
2022/05/23 00:09:09;;;;;;;8.20;3.65;;;;;;;10.32;64.60;96874.58;1543997;92;25548;-75
2022/05/23 00:11:36;;;;;;;5.42;3.62;;;;;;;10.31;64.62;96876.97;1544089;92;27641;-74
2022/05/23 00:14:03;;;;;;;7.37;3.52;;;;;;;10.28;64.72;96884.98;1544086;92;25857;-76
2022/05/23 00:16:35;;;;;;;7.15;3.60;;;;;;;10.28;64.82;96884.98;1543867;92;25871;-74
2022/05/23 00:19:01;;;;;;;7.80;3.87;;;;;;;10.26;64.97;96885.75;1524543;92;25849;-75
2022/05/23 00:21:28;;;;;;;5.62;3.75;;;;;;;10.20;64.92;96887.14;1544554;92;25778;-74
2022/05/23 00:23:55;;;;;;;5.85;3.60;;;;;;;10.12;65.12;96888.23;1545357;92;27641;-75
2022/05/23 00:26:23;;;;;;;6.45;4.03;;;;;;;10.13;65.26;96880.44;1545246;92;25815;-74
2022/05/23 00:28:50;;;;;;;6.15;4.00;;;;;;;10.16;65.44;96881.33;1545248;92;25762;-75
2022/05/23 00:31:19;;;;;;;6.65;3.47;;;;;;;10.18;65.41;96882.45;1545398;92;26722;-75
2022/05/23 00:36:33;;;;;;;6.25;3.65;;;;;;;10.24;65.60;96881.62;1546986;91;27626;-75
2022/05/23 00:39:01;;;;;;;6.37;3.35;;;;;;;10.26;65.64;96890.32;1548021;91;26004;-75
2022/05/23 00:44:30;;;;;;;4.12;3.40;;;;;;;10.29;65.64;96890.68;1533866;93;25837;-75
2022/05/23 00:47:02;;;;;;;5.22;3.45;;;;;;;10.28;65.74;96890.89;1534238;93;25760;-75
2022/05/23 00:49:34;;;;;;;8.40;3.80;;;;;;;10.27;65.71;96891.94;1533811;93;27681;-74
2022/05/23 00:52:05;;;;;;;6.28;4.15;;;;;;;10.27;65.82;96886.55;1534084;93;25839;-75
2022/05/23 00:54:42;;;;;;;5.90;3.50;;;;;;;10.28;65.90;96898.98;1581792;90;25739;-75
2022/05/23 00:57:16;;;;;;;5.85;3.50;;;;;;;10.27;65.99;96902.20;1610655;86;25827;-73
2022/05/23 00:59:43;;;;;;;5.80;3.45;;;;;;;10.27;66.08;96898.69;1589122;89;25733;-75
2022/05/23 01:02:12;;;;;;;5.87;3.42;;;;;;;10.26;66.13;96891.67;1651253;86;28192;-75
2022/05/23 01:04:40;;;;;;;5.90;3.45;;;;;;;10.29;66.20;96891.20;1651112;86;25662;-74
2022/05/23 01:07:07;;;;;;;4.92;3.40;;;;;;;10.29;66.21;96903.34;1651101;86;25792;-75
2022/05/23 01:09:36;;;;;;;7.28;3.65;;;;;;;10.26;66.30;96893.84;1651172;86;26508;-74
2022/05/23 01:12:03;;;;;;;6.35;3.98;;;;;;;10.24;66.38;96895.93;1651169;86;25737;-75
2022/05/23 01:14:54;;;;;;;7.72;3.90;;;;;;;10.26;66.50;96899.23;1651350;86;27428;-75
2022/05/23 01:17:23;;;;;;;4.40;3.77;;;;;;;10.28;66.49;96899.81;1651075;86;26100;-75
2022/05/23 01:19:50;;;;;;;5.55;3.30;;;;;;;10.29;66.53;96898.77;1651178;86;25746;-75
2022/05/23 01:22:34;;;;;;;4.92;3.55;;;;;;;10.30;66.43;96901.77;1651229;86;25840;-74
2022/05/23 01:25:32;;;;;;;5.83;3.52;;;;;;;10.31;66.49;96904.78;1645566;86;25926;-76
2022/05/23 01:27:59;;;;;;;5.30;3.55;;;;;;;10.30;66.56;96900.42;1595231;89;27647;-74
2022/05/23 01:30:27;;;;;;;6.80;4.05;;;;;;;10.30;66.68;96900.42;1595146;89;26208;-75
2022/05/23 01:32:54;;;;;;;4.97;3.80;;;;;;;10.31;66.73;96902.08;1595311;89;25910;-74
2022/05/23 01:35:21;;;;;;;7.35;3.37;;;;;;;10.30;66.68;96900.95;1595435;89;25836;-75
2022/05/23 01:37:47;;;;;;;4.53;3.35;;;;;;;10.29;66.67;96893.90;1595316;89;25785;-74
2022/05/23 01:40:17;;;;;;;7.62;3.52;;;;;;;10.27;66.67;96896.81;1574954;89;27638;-75
2022/05/23 01:42:46;;;;;;;4.37;3.00;;;;;;;10.27;66.71;96896.81;1527187;93;25755;-75
2022/05/23 01:45:17;;;;;;;3.70;2.85;;;;;;;10.19;66.67;96897.63;1525710;94;26249;-74
2022/05/23 01:47:44;;;;;;;4.53;3.00;;;;;;;10.10;66.77;96900.58;1525717;94;25842;-75
2022/05/23 01:50:11;;;;;;;4.90;2.65;;;;;;;10.08;66.80;96896.45;1496743;95;25798;-74
2022/05/23 01:52:39;;;;;;;5.15;2.83;;;;;;;10.05;66.77;96896.88;1496676;95;27404;-75
2022/05/23 01:55:06;;;;;;;4.67;2.75;;;;;;;10.02;66.81;96892.75;1496542;95;25778;-74
2022/05/23 01:57:34;;;;;;;3.52;2.90;;;;;;;10.00;66.86;96891.34;1532532;93;25449;-76
2022/05/23 02:02:48;;;;;;;4.62;3.00;;;;;;;9.93;66.99;96890.55;1548704;92;25757;-74
2022/05/23 02:05:16;;;;;;;3.80;3.02;;;;;;;9.88;66.98;96893.92;1618907;86;27500;-74
2022/05/23 02:07:43;;;;;;;4.67;2.75;;;;;;;9.85;67.04;96882.74;1652983;86;25862;-76
2022/05/23 02:10:11;;;;;;;3.40;2.80;;;;;;;9.81;67.04;96889.61;1653354;86;25778;-75
2022/05/23 02:12:39;;;;;;;4.37;2.90;;;;;;;9.77;67.14;96887.06;1653218;86;26416;-74
2022/05/23 02:15:07;;;;;;;7.22;3.00;;;;;;;9.77;67.23;96887.89;1653229;86;26479;-74
2022/05/23 02:17:34;;;;;;;3.45;2.80;;;;;;;9.80;67.24;96893.34;1653204;86;27452;-75
2022/05/23 02:20:02;;;;;;;6.42;2.92;;;;;;;9.78;67.36;96890.06;1653122;86;25828;-74
2022/05/23 02:22:29;;;;;;;5.05;2.92;;;;;;;9.72;67.36;96889.88;1653091;86;26718;-74
2022/05/23 02:24:55;;;;;;;5.58;3.00;;;;;;;9.65;67.48;96891.81;1653395;86;25765;-74
2022/05/23 02:27:22;;;;;;;5.25;3.02;;;;;;;9.62;67.55;96881.98;1653192;86;25805;-73
2022/05/23 02:29:49;;;;;;;3.50;2.77;;;;;;;9.61;67.70;96886.55;1653414;86;27408;-74
2022/05/23 02:32:15;;;;;;;4.90;2.40;;;;;;;9.55;67.75;96885.22;1655848;85;25707;-76
2022/05/23 02:34:42;;;;;;;3.47;2.80;;;;;;;9.51;67.81;96891.59;1700386;84;25717;-74
2022/05/23 02:37:10;;;;;;;3.50;2.75;;;;;;;9.49;67.81;96888.28;1707445;84;25705;-74
2022/05/23 02:39:37;;;;;;;4.03;3.55;;;;;;;9.47;67.75;96884.97;1707533;84;25748;-75
2022/05/23 02:42:05;;;;;;;4.15;3.10;;;;;;;9.46;67.78;96884.67;1712252;83;28197;-74
2022/05/23 02:44:31;;;;;;;3.30;2.62;;;;;;;9.44;67.84;96884.05;1724325;83;25816;-76
2022/05/23 02:46:58;;;;;;;4.62;3.00;;;;;;;9.43;67.99;96881.05;1724636;83;25792;-74
2022/05/23 02:49:25;;;;;;;3.87;3.10;;;;;;;9.42;68.11;96883.98;1724565;82;26419;-76
2022/05/23 02:51:51;;;;;;;3.47;2.62;;;;;;;9.40;68.23;96881.51;1724704;83;25295;-73
2022/05/23 02:54:18;;;;;;;5.75;3.30;;;;;;;9.44;68.40;96877.84;1724447;83;27422;-75
2022/05/23 02:56:44;;;;;;;3.77;3.10;;;;;;;9.47;68.48;96868.81;1724365;83;25721;-74
2022/05/23 02:59:11;;;;;;;5.15;3.10;;;;;;;9.49;68.54;96872.12;1724653;83;25240;-76
2022/05/23 03:03:01;;;;;;;6.12;3.50;;;;;;;9.50;68.58;96867.55;1724641;83;25833;-74
2022/05/23 03:04:06;;;;;;;3.10;2.80;;;;;;;9.47;68.68;96866.12;1720952;83;25619;-75
2022/05/23 03:06:33;;;;;;;3.47;2.85;;;;;;;9.51;68.67;96870.55;1724843;83;27324;-76
2022/05/23 03:09:00;;;;;;;4.00;3.08;;;;;;;9.54;68.75;96869.58;1724745;83;25248;-74
2022/05/23 03:11:26;;;;;;;4.97;3.50;;;;;;;9.62;68.70;96871.20;1724952;83;25711;-76
2022/05/23 03:13:54;;;;;;;4.80;3.58;;;;;;;9.67;68.73;96873.53;1724711;83;25785;-75
2022/05/23 03:16:21;;;;;;;6.08;3.75;;;;;;;9.74;68.71;96871.62;1724892;83;25976;-76
2022/05/23 03:18:47;;;;;;;7.92;4.03;;;;;;;9.80;68.76;96871.78;1724719;83;28325;-75
2022/05/23 03:26:58;;;;;;;5.00;3.62;;;;;;;9.85;68.76;96865.22;1724383;83;26089;-74
2022/05/23 03:29:13;;;;;;;4.33;3.37;;;;;;;9.81;69.02;96874.78;1724555;83;26205;-75
2022/05/23 03:31:40;;;;;;;4.83;3.70;;;;;;;9.77;69.19;96873.59;1724706;83;28144;-75
2022/05/23 03:34:06;;;;;;;7.83;4.45;;;;;;;9.78;69.30;96879.28;1724744;83;25818;-75
2022/05/23 03:36:33;;;;;;;5.72;4.35;;;;;;;9.77;69.35;96878.98;1724684;83;25707;-75
2022/05/23 03:39:00;;;;;;;4.87;3.70;;;;;;;9.77;69.36;96884.37;1724934;83;25773;-74
2022/05/23 03:41:27;;;;;;;9.13;4.55;;;;;;;9.82;69.51;96886.70;1724857;83;25623;-75
2022/05/23 03:43:53;;;;;;;5.78;4.45;;;;;;;9.86;69.52;96894.66;1728851;82;27318;-75
2022/05/23 03:46:21;;;;;;;6.62;4.33;;;;;;;9.91;69.46;96893.98;1729636;82;26025;-75
2022/05/23 03:48:47;;;;;;;6.05;4.45;;;;;;;9.95;69.39;96890.64;1729667;82;25822;-74
2022/05/23 03:51:14;;;;;;;9.43;4.12;;;;;;;9.98;69.43;96891.55;1729597;82;26358;-75
2022/05/23 03:53:41;;;;;;;8.38;4.53;;;;;;;10.02;69.47;96889.25;1729894;82;26750;-76
2022/05/23 03:56:08;;;;;;;4.92;4.30;;;;;;;10.07;69.48;96890.75;1729790;82;28027;-75
2022/05/23 03:58:34;;;;;;;7.67;4.58;;;;;;;10.06;69.32;96887.75;1729578;82;25720;-74
2022/05/23 04:01:11;;;;;;;6.35;4.30;;;;;;;10.08;69.37;96889.19;1729647;82;25796;-73
2022/05/23 04:03:38;;;;;;;6.20;4.45;;;;;;;10.11;69.34;96893.31;1729642;82;25725;-74
2022/05/23 04:06:05;;;;;;;4.67;4.00;;;;;;;10.18;69.26;96895.94;1729720;82;25233;-74
2022/05/23 04:08:32;;;;;;;5.25;4.12;;;;;;;10.26;69.17;96897.89;1729612;82;27369;-74
2022/05/23 04:10:59;;;;;;;5.70;4.42;;;;;;;10.33;69.16;96894.59;1729642;82;25706;-75
2022/05/23 04:13:26;;;;;;;6.42;4.22;;;;;;;10.39;69.06;96895.03;1729771;82;26348;-74
2022/05/23 04:15:53;;;;;;;6.97;4.67;;;;;;;10.46;68.92;96891.77;1729733;82;25785;-74
2022/05/23 04:18:20;;;;;;;6.62;4.55;;;;;;;10.52;68.90;96893.25;1729688;82;25727;-74
2022/05/23 04:20:47;;;;;;;7.20;4.97;;;;;;;10.56;68.93;96891.25;1729670;82;28140;-74
2022/05/23 04:23:15;;;;;;;6.80;5.37;;;;;;;10.60;69.05;96897.86;1729549;82;25809;-75
2022/05/23 04:25:45;;;;;;;7.85;5.37;;;;;;;10.64;69.04;96903.09;1729766;82;25670;-74
2022/05/23 04:28:13;;;;;;;8.78;6.00;;;;;;;10.69;68.93;96905.95;1729570;82;26464;-74
2022/05/23 04:30:42;;;;;;;10.08;5.90;;;;;;;10.76;68.92;96904.52;1729672;82;25667;-74
2022/05/23 04:35:55;;;;;;;10.35;7.60;;;;;;;10.85;68.82;96904.55;1729415;82;25835;-74
2022/05/23 04:38:22;;;;;;;9.28;7.20;;;;;;;10.86;68.82;96908.90;1729419;82;25695;-74
2022/05/23 04:40:48;;;;;;;9.23;7.12;;;;;;;10.91;68.72;96904.98;1729747;82;25838;-74
2022/05/23 04:43:16;;;;;;;8.55;7.62;;;;;;;10.95;68.49;96899.96;1727075;82;25725;-74
2022/05/23 04:45:43;;;;;;;9.90;7.70;;;;;;;10.97;68.42;96901.39;1724686;83;27691;-74
2022/05/23 04:50:55;;;;;;;10.95;7.60;;;;;;;11.10;67.97;96907.98;1724587;83;25758;-74
2022/05/23 04:53:22;;;;;;;11.90;8.58;;;;;;;11.18;67.98;96902.79;1724653;83;25788;-75
2022/05/23 04:55:49;;;;;;;11.35;9.23;;;;;;;11.27;68.08;96907.34;1724760;83;25640;-74
2022/05/23 04:58:15;;;;;;;12.37;8.90;;;;;;;11.35;68.24;96901.65;1724741;83;27499;-75
2022/05/23 05:00:42;;;;;;;13.18;9.53;;;;;;;11.35;68.18;96899.74;1724469;83;25719;-74
2022/05/23 05:03:09;;;;;;;14.07;11.35;;;;;;;11.31;68.15;96901.80;1724746;83;25763;-74
2022/05/23 05:05:36;;;;;;;15.58;11.45;;;;;;;11.28;68.15;96903.07;1724708;83;25751;-75
2022/05/23 05:08:04;;;;;;;13.65;10.45;;;;;;;11.33;68.04;96901.88;1724650;83;25763;-74
2022/05/23 05:10:31;;;;;;;15.78;11.38;;;;;;;11.40;67.92;96905.30;1724723;83;27365;-74
2022/05/23 05:12:58;;;;;;;11.53;10.32;;;;;;;11.33;67.81;96902.40;1724710;83;25719;-74
2022/05/23 05:15:28;;;;;;;12.10;9.75;;;;;;;11.36;67.64;96896.52;1724622;83;25686;-76
2022/05/23 05:17:56;;;;;;;13.43;10.68;;;;;;;11.42;67.42;96896.44;1724687;83;26339;-74
2022/05/23 05:20:23;;;;;;;11.05;9.90;;;;;;;11.48;67.21;96895.51;1724749;83;25738;-74
2022/05/23 05:22:52;;;;;;;13.40;9.28;;;;;;;11.54;66.99;96902.72;1724611;83;27527;-75
2022/05/23 05:25:19;;;;;;;12.35;9.98;;;;;;;11.58;66.80;96890.93;1724588;83;25707;-76
2022/05/23 05:27:46;;;;;;;11.57;9.65;;;;;;;11.63;66.74;96895.09;1724514;83;25786;-75
2022/05/23 05:30:19;;;;;;;14.00;9.60;;;;;;;11.69;66.56;96890.14;1724769;83;25810;-75
2022/05/23 05:33:02;;;;;;;10.95;9.00;;;;;;;11.73;66.37;96889.95;1683629;85;25815;-74
2022/05/23 05:35:40;;;;;;;10.40;8.88;;;;;;;11.77;66.21;96897.94;1682520;85;27294;-75
2022/05/23 05:38:15;;;;;;;11.97;9.25;;;;;;;11.82;65.98;96895.38;1671175;85;25675;-74
2022/05/23 05:40:45;;;;;;;13.48;8.95;;;;;;;11.88;65.95;96898.50;1683901;85;25814;-74
2022/05/23 05:43:20;;;;;;;12.68;8.38;;;;;;;11.93;65.92;96902.39;1679831;84;25770;-75
2022/05/23 05:45:53;;;;;;;12.13;8.73;;;;;;;11.98;65.97;96903.33;1671023;85;25735;-74
2022/05/23 05:48:20;;;;;;;11.55;8.53;;;;;;;11.98;65.52;96902.50;1659968;86;28071;-76
2022/05/23 05:50:49;;;;;;;16.97;9.33;;;;;;;11.94;65.46;96902.17;1659917;86;26125;-75
2022/05/23 05:53:27;;;;;;;14.30;9.23;;;;;;;11.99;65.26;96901.45;1659995;86;25885;-74
2022/05/23 05:55:54;;;;;;;13.40;9.48;;;;;;;12.03;65.12;96906.17;1658641;86;26699;-74
2022/05/23 05:58:20;;;;;;;14.07;10.05;;;;;;;12.06;65.16;96903.02;1659891;86;25852;-75
2022/05/23 06:00:48;;;;;;;13.83;11.30;;;;;;;12.11;65.22;96907.70;1660027;86;27475;-74
2022/05/23 06:03:14;;;;;;;14.60;10.40;;;;;;;12.06;64.71;96909.78;1661532;85;25768;-75
2022/05/23 06:11:26;;;;;;;13.28;11.28;;;;;;;12.22;64.14;96912.31;1683976;85;25882;-75
2022/05/23 06:13:59;;;;;;;21.55;10.78;;;;;;;12.26;63.83;96918.91;1685859;85;27564;-76
2022/05/23 06:16:29;;;;;;;13.90;10.68;;;;;;;12.32;63.70;96919.31;1685653;85;25803;-77
2022/05/23 06:18:57;;;;;;;14.50;10.13;;;;;;;12.38;63.65;96922.98;1685776;85;25868;-77
2022/05/23 06:21:26;;;;;;;17.42;9.90;;;;;;;12.46;63.58;96921.27;1685889;85;25812;-75
2022/05/23 06:23:54;;;;;;;12.15;8.98;;;;;;;12.52;63.04;96917.64;1656547;86;25840;-78
2022/05/23 06:26:23;;;;;;;16.37;10.25;;;;;;;12.55;63.05;96915.30;1656601;86;27502;-77
2022/05/23 06:28:51;;;;;;;15.13;9.20;;;;;;;12.65;63.21;96917.94;1651196;86;25316;-76
2022/05/23 06:31:18;;;;;;;12.70;7.25;;;;;;;12.71;62.86;96921.03;1628880;88;25942;-74
2022/05/23 06:33:45;;;;;;;9.08;6.17;;;;;;;12.75;61.88;96920.86;1629358;88;26502;-74
2022/05/23 06:36:13;;;;;;;7.87;5.65;;;;;;;12.82;61.64;96920.20;1628996;88;25815;-74
2022/05/23 06:41:11;;;;;;;7.10;5.08;;;;;;;12.97;60.55;96921.89;1520641;94;26516;-75
2022/05/23 06:43:40;;;;;;;6.92;4.50;;;;;;;13.03;60.38;96923.66;1514757;93;25918;-75
2022/05/23 06:46:09;;;;;;;7.42;4.58;;;;;;;13.03;59.22;96924.20;1513472;94;25835;-74
2022/05/23 06:48:36;;;;;;;11.15;5.47;;;;;;;13.03;59.62;96922.31;1514070;94;25855;-76
2022/05/23 06:51:04;;;;;;;7.67;4.80;;;;;;;13.12;59.58;96927.64;1503752;94;27442;-74
2022/05/23 06:53:31;;;;;;;6.95;4.75;;;;;;;13.22;59.26;96930.59;1513691;94;26064;-74
2022/05/23 06:55:57;;;;;;;6.28;5.05;;;;;;;13.28;58.88;96930.97;1569049;91;25906;-74
2022/05/23 06:58:26;;;;;;;6.72;5.42;;;;;;;13.34;58.68;96932.74;1573975;91;25973;-74
2022/05/23 07:00:54;;;;;;;8.38;5.80;;;;;;;13.36;58.86;96928.97;1556169;91;25844;-74
2022/05/23 07:03:21;;;;;;;5.50;4.62;;;;;;;13.44;58.85;96923.98;1556072;91;28209;-75
2022/05/23 07:14:06;;;;;;;6.05;3.58;;;;;;;13.78;56.80;96922.19;1555936;91;26038;-74
2022/05/23 07:16:34;;;;;;;6.40;3.47;;;;;;;13.80;56.50;96918.70;1556306;91;27494;-73
2022/05/23 07:19:04;;;;;;;4.83;3.25;;;;;;;13.86;56.54;96910.97;1556132;91;25852;-74
2022/05/23 07:21:31;;;;;;;5.47;3.30;;;;;;;13.94;55.79;96907.02;1556142;91;25980;-76
2022/05/23 07:23:58;;;;;;;4.20;2.80;;;;;;;13.99;55.95;96902.52;1556062;91;26471;-74
2022/05/23 07:26:25;;;;;;;3.72;2.85;;;;;;;14.09;55.39;96899.15;1556184;91;25613;-75
2022/05/23 07:28:53;;;;;;;4.17;2.80;;;;;;;14.22;55.27;96903.44;1556072;92;28391;-76
2022/05/23 07:31:19;;;;;;;5.85;3.25;;;;;;;14.36;54.90;96904.75;1556008;91;25978;-75
2022/05/23 07:33:46;;;;;;;3.83;2.75;;;;;;;14.49;54.94;96901.70;1556065;91;25775;-75
2022/05/23 07:36:14;;;;;;;3.50;2.98;;;;;;;14.58;54.20;96897.52;1556056;91;26486;-75
2022/05/23 07:38:41;;;;;;;8.65;3.50;;;;;;;14.69;54.01;96899.85;1624438;87;25892;-75
2022/05/23 07:41:10;;;;;;;4.45;2.47;;;;;;;14.73;53.90;96895.01;1678952;85;28436;-74
2022/05/23 07:43:39;;;;;;;4.28;1.98;;;;;;;14.90;53.94;96890.08;1686141;84;26401;-76
2022/05/23 07:46:13;;;;;;;2.60;2.27;;;;;;;15.17;53.33;96890.17;1704366;84;25757;-75
2022/05/23 07:48:46;;;;;;;4.78;1.92;;;;;;;15.48;52.58;96878.03;1704654;84;25719;-77
2022/05/23 07:51:16;;;;;;;3.00;2.25;;;;;;;15.89;52.44;96874.41;1704964;84;25875;-75
2022/05/23 08:01:41;;;;;;;4.05;2.10;;;;;;;17.74;49.98;96869.28;1637700;86;26536;-75
2022/05/23 08:04:09;;;;;;;5.40;2.58;;;;;;;17.97;49.15;96864.69;1637641;86;25787;-76
2022/05/23 08:06:35;;;;;;;6.15;2.37;;;;;;;18.38;48.82;96868.77;1637720;86;27461;-75
2022/05/23 08:09:03;;;;;;;9.18;2.40;;;;;;;18.47;47.56;96861.69;1637793;86;25893;-76
2022/05/23 08:11:30;;;;;;;2.45;2.02;;;;;;;18.89;47.47;96867.65;1637841;86;25812;-76
2022/05/23 08:13:57;;;;;;;2.60;1.98;;;;;;;19.29;46.71;96854.95;1637672;86;25786;-78
2022/05/23 08:16:24;;;;;;;3.20;2.25;;;;;;;19.36;45.14;96843.13;1637748;86;25712;-74
2022/05/23 08:18:51;;;;;;;1.77;1.62;;;;;;;19.54;45.65;96841.17;1637830;86;27488;-75
2022/05/23 08:21:18;;;;;;;2.70;1.92;;;;;;;19.85;44.98;96840.98;1637702;87;26023;-78
2022/05/23 08:23:44;;;;;;;4.40;1.57;;;;;;;19.97;44.28;96842.26;1637719;87;25881;-77
2022/05/23 08:26:12;;;;;;;3.40;1.67;;;;;;;20.25;44.04;96836.58;1637758;87;25768;-77
2022/05/23 08:28:39;;;;;;;1.90;1.75;;;;;;;20.72;43.54;96837.81;1637927;86;25800;-79
2022/05/23 08:31:06;;;;;;;21.77;3.65;;;;;;;20.99;42.67;96832.59;1637660;86;27582;-76
2022/05/23 08:33:32;;;;;;;4.42;1.70;;;;;;;21.36;41.95;96822.84;1665793;84;26625;-75
2022/05/23 08:35:59;;;;;;;3.75;1.62;;;;;;;21.81;41.50;96820.02;1704763;84;25857;-77
2022/05/23 08:38:25;;;;;;;2.10;1.12;;;;;;;22.15;40.54;96818.42;1704747;84;25828;-79
2022/05/23 08:41:12;;;;;;;3.40;1.90;;;;;;;22.53;39.86;96815.84;1704787;84;26010;-76
2022/05/23 08:44:13;;;;;;;1.70;1.60;;;;;;;22.84;38.99;96820.81;1703112;84;28168;-80
2022/05/23 08:47:03;;;;;;;2.52;1.50;;;;;;;22.89;38.85;96812.47;1695334;84;25493;-79
2022/05/23 08:52:33;;;;;;;2.33;1.37;;;;;;;22.26;37.48;96808.89;1676593;85;25725;-77
2022/05/23 08:55:14;;;;;;;3.55;1.52;;;;;;;22.44;37.49;96805.30;1645314;87;26011;-78
2022/05/23 08:57:52;;;;;;;2.33;1.50;;;;;;;22.57;36.47;96803.13;1647028;87;27449;-80
2022/05/23 09:00:27;;;;;;;3.12;1.30;;;;;;;22.71;36.58;96803.12;1647302;87;25725;-76
2022/05/23 09:02:59;;;;;;;4.20;1.70;;;;;;;23.20;36.33;96804.41;1676449;85;25917;-77
2022/05/23 09:05:36;;;;;;;1.67;1.20;;;;;;;23.43;35.67;96813.56;1647584;87;26570;-77
2022/05/23 09:08:13;;;;;;;2.12;1.30;;;;;;;23.05;34.91;96811.06;1656070;86;25839;-78
2022/05/23 09:10:54;;;;;;;1.92;1.20;;;;;;;22.98;34.54;96807.87;1627918;88;27452;-77
2022/05/23 09:13:27;;;;;;;2.33;1.30;;;;;;;22.62;33.83;96805.77;1628228;88;25871;-78
2022/05/23 09:15:59;;;;;;;3.02;1.32;;;;;;;22.29;34.51;96800.05;1628204;88;25787;-77
2022/05/23 09:18:28;;;;;;;1.60;1.50;;;;;;;22.67;34.17;96797.19;1624604;88;25763;-76
2022/05/23 09:20:59;;;;;;;1.90;1.32;;;;;;;23.03;33.57;96797.34;1627950;86;25749;-77
2022/05/23 09:23:29;;;;;;;1.42;1.30;;;;;;;23.28;33.64;96801.77;1627943;88;26847;-78
2022/05/23 09:25:59;;;;;;;1.82;1.20;;;;;;;23.55;33.83;96803.69;1627895;88;25627;-76
2022/05/23 09:28:35;;;;;;;2.45;1.50;;;;;;;23.54;33.40;96809.53;1627841;88;26082;-79
2022/05/23 09:31:19;;;;;;;1.85;1.32;;;;;;;23.49;32.89;96806.84;1627827;86;26386;-78
2022/05/23 09:33:50;;;;;;;4.65;1.30;;;;;;;23.38;32.46;96809.00;1621401;88;25709;-78
2022/05/23 09:36:39;;;;;;;2.52;1.22;;;;;;;23.56;32.46;96806.70;1640855;87;27530;-77
2022/05/23 09:39:10;;;;;;;2.75;1.17;;;;;;;23.88;31.74;96808.47;1653528;86;25903;-76
2022/05/23 09:50:06;;;;;;;5.42;3.05;;;;;;;23.46;32.54;96800.00;1574720;90;27429;-76
2022/05/23 09:52:42;;;;;;;7.70;3.45;;;;;;;23.03;31.74;96796.78;1574709;91;25807;-77
2022/05/23 09:55:16;;;;;;;5.50;3.20;;;;;;;22.46;32.60;96793.41;1574998;90;25863;-76
2022/05/23 09:57:56;;;;;;;2.67;1.85;;;;;;;22.30;32.96;96794.81;1597896;89;25755;-79
2022/05/23 10:00:27;;;;;;;2.87;2.00;;;;;;;22.14;33.18;96782.43;1529396;93;25995;-76
2022/05/23 10:03:05;;;;;;;3.45;1.37;;;;;;;21.87;33.46;96792.16;1529463;93;27446;-77
2022/05/23 10:05:39;;;;;;;2.60;1.35;;;;;;;21.53;33.23;96788.83;1575454;90;25879;-76
2022/05/23 10:08:34;;;;;;;3.10;1.50;;;;;;;21.40;33.03;96786.81;1579606;90;25916;-77
2022/05/23 10:11:22;;;;;;;1.30;1.20;;;;;;;21.40;33.80;96786.81;1579486;90;25700;-76
2022/05/23 10:14:00;;;;;;;2.33;1.30;;;;;;;21.30;33.96;96780.91;1579665;90;25848;-76
2022/05/23 10:16:44;;;;;;;2.33;1.40;;;;;;;21.23;34.78;96794.75;1579661;90;27413;-76
2022/05/23 10:19:14;;;;;;;1.72;1.07;;;;;;;21.33;35.44;96792.68;1578384;90;25930;-77
2022/05/23 10:21:46;;;;;;;1.92;1.20;;;;;;;21.42;35.16;96792.27;1576699;90;25815;-76
2022/05/23 10:24:26;;;;;;;3.17;1.60;;;;;;;21.71;35.24;96781.72;1579594;90;25935;-76
2022/05/23 10:27:06;;;;;;;2.87;1.12;;;;;;;21.85;34.89;96775.18;1579705;90;25948;-76
2022/05/23 10:29:53;;;;;;;1.75;1.15;;;;;;;21.80;34.72;96782.11;1538407;93;27418;-77
2022/05/23 10:32:25;;;;;;;5.20;1.52;;;;;;;21.76;34.63;96785.19;1537404;93;25858;-76
2022/05/23 10:34:57;;;;;;;1.95;1.30;;;;;;;21.83;34.36;96779.34;1484749;96;25500;-76
2022/05/23 10:37:27;;;;;;;1.27;1.17;;;;;;;21.85;34.40;96773.81;1482322;96;25812;-77
2022/05/23 10:42:53;;;;;;;1.95;1.35;;;;;;;21.75;35.02;96782.73;1531037;93;28325;-77
2022/05/23 10:45:46;;;;;;;3.60;1.17;;;;;;;22.02;36.04;96787.58;1519855;92;25890;-77
2022/05/23 10:48:44;;;;;;;2.37;1.25;;;;;;;22.19;35.46;96790.60;1554048;92;25856;-76
2022/05/23 10:51:25;;;;;;;1.25;1.10;;;;;;;22.40;34.92;96786.38;1507412;95;26310;-77
2022/05/23 10:54:20;;;;;;;1.15;0.85;;;;;;;22.49;35.19;96782.36;1508141;95;25815;-77
2022/05/23 10:57:10;;;;;;;0.82;0.82;;;;;;;22.83;34.92;96780.66;1498581;95;27420;-78
2022/05/23 11:00:06;;;;;;;1.27;0.90;;;;;;;23.22;35.02;96782.34;1498659;95;25919;-77
2022/05/23 11:02:44;;;;;;;1.30;0.70;;;;;;;23.54;34.72;96774.53;1487290;95;25913;-77
2022/05/23 11:05:25;;;;;;;2.25;0.90;;;;;;;23.91;33.85;96773.38;1485901;96;25876;-77
2022/05/23 11:08:22;;;;;;;4.10;1.00;;;;;;;23.96;33.55;96777.40;1496766;95;25932;-78
2022/05/23 11:11:15;;;;;;;1.45;1.20;;;;;;;23.68;33.38;96771.72;1499109;94;27472;-77
2022/05/23 11:13:58;;;;;;;1.15;1.05;;;;;;;23.47;33.34;96763.64;1501106;94;25962;-78
2022/05/23 11:16:42;;;;;;;;;;;;;;;23.44;33.63;96765.62;1503838;94;26972;-77
2022/05/23 11:19:26;;;;;;;3.25;0.85;;;;;;;23.64;32.73;96761.09;1504354;94;25814;-77
2022/05/23 11:22:04;;;;;;;3.60;1.20;;;;;;;23.75;33.08;96756.97;1510478;94;25800;-77
2022/05/23 11:24:42;;;;;;;3.95;1.20;;;;;;;23.55;33.73;96754.09;1506272;95;28398;-77
2022/05/23 11:35:52;;;;;;;1.32;1.20;;;;;;;23.79;33.59;96742.02;1420225;100;25831;-77
2022/05/23 11:38:20;;;;;;;1.20;1.05;;;;;;;23.59;34.11;96739.97;1408735;101;27538;-75
2022/05/23 11:41:01;;;;;;;1.02;1.00;;;;;;;23.57;33.80;96731.75;1436727;97;25752;-78
2022/05/23 11:43:29;;;;;;;1.05;0.93;;;;;;;23.70;33.43;96737.78;1464581;97;25820;-79
2022/05/23 11:46:05;;;;;;;1.40;1.30;;;;;;;23.72;32.99;96742.42;1443968;97;26047;-76
2022/05/23 11:48:46;;;;;;;1.40;1.20;;;;;;;23.58;32.81;96736.95;1455019;97;26536;-77
2022/05/23 11:51:36;;;;;;;1.82;1.15;;;;;;;23.31;32.81;96733.67;1468349;97;27433;-76
2022/05/23 11:54:12;;;;;;;1.87;1.10;;;;;;;23.22;33.08;96732.78;1468598;97;26030;-78
2022/05/23 11:57:02;;;;;;;3.12;1.35;;;;;;;23.30;33.67;96729.88;1468616;97;25879;-77
2022/05/23 11:59:34;;;;;;;5.12;1.50;;;;;;;23.24;33.82;96728.34;1497314;94;25939;-78
2022/05/23 12:02:15;;;;;;;2.15;1.10;;;;;;;23.20;34.13;96728.14;1515060;94;25850;-75
2022/05/23 12:04:54;;;;;;;1.35;0.98;;;;;;;22.96;33.92;96708.29;1514947;94;27984;-76
2022/05/23 12:07:44;;;;;;;1.85;1.07;;;;;;;23.12;33.56;96715.67;1570118;88;25852;-79
2022/05/23 12:10:25;;;;;;;1.87;1.10;;;;;;;23.14;33.53;96721.69;1614676;88;25765;-76
2022/05/23 12:12:59;;;;;;;2.47;1.20;;;;;;;23.34;34.20;96715.16;1614612;88;25839;-77
2022/05/23 12:15:52;;;;;;;4.30;1.20;;;;;;;23.33;33.70;96719.04;1617159;84;25800;-77
2022/05/23 12:18:29;;;;;;;2.05;1.37;;;;;;;23.42;33.71;96721.08;1705347;84;27549;-77
2022/05/23 12:21:00;;;;;;;1.50;1.20;;;;;;;23.47;33.00;96719.01;1705486;84;25929;-76
2022/05/23 12:23:35;;;;;;;1.60;1.10;;;;;;;23.50;33.15;96710.69;1705420;83;25336;-78
2022/05/23 12:26:13;;;;;;;1.45;1.35;;;;;;;23.25;33.27;96715.65;1714572;82;25730;-76
2022/05/23 12:28:57;;;;;;;1.15;0.95;;;;;;;23.15;33.71;96717.25;1680920;85;25725;-77
2022/05/23 12:31:27;;;;;;;1.50;1.20;;;;;;;23.22;34.15;96709.37;1625400;88;27459;-77
2022/05/23 12:34:08;;;;;;;2.92;1.32;;;;;;;23.33;34.47;96716.84;1598064;89;25758;-77
2022/05/23 12:36:40;;;;;;;1.57;1.20;;;;;;;23.54;34.64;96713.12;1598067;89;25977;-77
2022/05/23 12:39:21;;;;;;;1.12;1.02;;;;;;;23.68;34.24;96708.34;1570580;91;25870;-76
2022/05/23 12:42:17;;;;;;;4.37;1.37;;;;;;;23.57;33.62;96701.45;1517316;94;25871;-77
2022/05/23 12:45:19;;;;;;;1.55;1.10;;;;;;;23.33;33.50;96699.77;1469848;96;28135;-77
2022/05/23 12:48:09;;;;;;;2.37;1.10;;;;;;;23.32;33.78;96696.75;1466385;97;25538;-76
2022/05/23 12:51:02;;;;;;;1.30;1.10;;;;;;;23.35;33.36;96692.02;1464503;97;25912;-76
2022/05/23 12:53:53;;;;;;;1.20;1.10;;;;;;;23.24;33.61;96686.48;1465865;97;25891;-77
2022/05/23 12:56:32;;;;;;;1.32;1.10;;;;;;;23.29;33.86;96682.25;1467292;97;25859;-77
2022/05/23 12:59:31;;;;;;;3.95;1.17;;;;;;;23.42;33.22;96682.52;1479014;96;27674;-77
2022/05/23 13:02:09;;;;;;;3.83;1.32;;;;;;;23.42;32.51;96673.70;1484702;96;25744;-77
2022/05/23 13:04:53;;;;;;;1.52;1.00;;;;;;;23.41;32.60;96678.14;1469169;96;25960;-77